Time;durP1;ratioP1;P1;durP2;ratioP2;P2;SDS_P1;SDS_P2;PMS_P1;PMS_P2;Temp;Humidity;BMP_temperature;BMP_pressure;BME280_temperature;BME280_humidity;BME280_pressure;Samples;Min_cycle;Max_cycle;Signal;HPM_P1;HPM_P2
2022/06/03 00:00:13;;;;;;;5.90;4.33;;;15.70;95.50;;;;;;5135391;27;20437;-64
2022/06/03 00:03:09;;;;;;;5.87;4.40;;;15.70;95.60;;;;;;5134667;27;20503;-64
2022/06/03 00:06:16;;;;;;;5.27;4.40;;;15.70;95.60;;;;;;5135448;27;20506;-64
2022/06/03 00:09:14;;;;;;;4.47;3.73;;;15.60;95.00;;;;;;5114623;27;20430;-64
2022/06/03 00:12:16;;;;;;;5.70;4.10;;;15.40;94.80;;;;;;5122018;27;20426;-64
2022/06/03 00:15:10;;;;;;;4.50;3.40;;;15.20;94.80;;;;;;5135083;27;20457;-64
2022/06/03 00:17:56;;;;;;;7.00;4.30;;;15.20;95.50;;;;;;5134732;27;20479;-64
2022/06/03 00:20:39;;;;;;;5.63;4.60;;;15.20;95.90;;;;;;5134623;27;20913;-65
2022/06/03 00:23:35;;;;;;;5.13;4.03;;;15.20;96.10;;;;;;5134564;27;20551;-64
2022/06/03 00:26:40;;;;;;;4.60;4.10;;;15.20;96.40;;;;;;5134191;27;20441;-63
2022/06/03 00:29:31;;;;;;;7.87;5.40;;;15.10;96.50;;;;;;5134653;27;20926;-64
2022/06/03 00:32:27;;;;;;;7.63;5.27;;;15.10;96.60;;;;;;5117763;27;20437;-64
2022/06/03 00:35:35;;;;;;;7.33;6.43;;;15.00;97.40;;;;;;5134510;27;20437;-64
2022/06/03 00:38:16;;;;;;;7.30;5.13;;;15.00;97.80;;;;;;5113427;28;20509;-64
2022/06/03 00:40:58;;;;;;;5.37;4.87;;;15.00;98.10;;;;;;5115141;27;20491;-64
2022/06/03 00:43:46;;;;;;;6.87;5.03;;;15.10;98.50;;;;;;5134521;27;20437;-64
2022/06/03 00:46:35;;;;;;;5.17;4.67;;;15.10;98.40;;;;;;5133924;27;20747;-65
2022/06/03 00:49:40;;;;;;;7.87;4.63;;;15.10;98.10;;;;;;5134347;27;20445;-64
2022/06/03 00:52:30;;;;;;;4.67;3.97;;;15.10;97.60;;;;;;5134179;27;20461;-64
2022/06/03 00:55:26;;;;;;;11.40;4.80;;;15.10;96.90;;;;;;5134187;27;20580;-64
2022/06/03 00:58:19;;;;;;;7.17;4.53;;;15.00;96.70;;;;;;5133764;27;20476;-64
2022/06/03 01:01:04;;;;;;;6.03;4.50;;;15.00;96.80;;;;;;5133595;27;20824;-64
2022/06/03 01:03:48;;;;;;;4.87;4.40;;;15.00;96.90;;;;;;5133875;27;20945;-64
2022/06/03 01:06:40;;;;;;;5.40;4.90;;;14.90;96.90;;;;;;5133227;27;20441;-64
2022/06/03 01:09:22;;;;;;;6.00;4.80;;;14.80;97.00;;;;;;5133867;27;20532;-64
2022/06/03 01:12:13;;;;;;;5.43;3.97;;;14.80;97.10;;;;;;5133214;27;20437;-64
2022/06/03 01:14:58;;;;;;;5.00;4.30;;;14.80;96.90;;;;;;5133230;27;20524;-64
2022/06/03 01:17:33;;;;;;;4.80;4.30;;;14.70;96.50;;;;;;5133790;27;20511;-64
2022/06/03 01:20:13;;;;;;;9.70;4.73;;;14.70;96.90;;;;;;5133514;27;20460;-64
2022/06/03 01:23:23;;;;;;;5.73;4.07;;;14.60;96.90;;;;;;5133484;27;20440;-64
2022/06/03 01:26:32;;;;;;;5.80;4.10;;;14.60;97.00;;;;;;5087327;27;20437;-64
2022/06/03 01:29:25;;;;;;;7.23;4.10;;;14.60;97.10;;;;;;5122950;27;20437;-64
2022/06/03 01:32:30;;;;;;;5.70;4.60;;;14.50;97.00;;;;;;5132997;27;20958;-64
2022/06/03 01:35:36;;;;;;;5.30;4.53;;;14.40;97.10;;;;;;5132445;27;20429;-64
2022/06/03 01:38:11;;;;;;;4.97;4.50;;;14.40;97.60;;;;;;5092034;27;20966;-64
2022/06/03 01:41:00;;;;;;;5.27;4.47;;;14.30;97.20;;;;;;5133233;27;20504;-64
2022/06/03 01:43:40;;;;;;;5.07;4.57;;;14.40;97.20;;;;;;5133773;27;20923;-64
2022/06/03 01:46:29;;;;;;;5.60;4.33;;;14.40;97.20;;;;;;5132664;27;20433;-64
2022/06/03 01:49:35;;;;;;;5.93;3.97;;;14.40;97.10;;;;;;5112631;28;20470;-64
2022/06/03 01:52:35;;;;;;;5.10;4.13;;;14.40;97.10;;;;;;5112514;28;20434;-63
2022/06/03 01:55:47;;;;;;;10.17;4.70;;;14.40;96.90;;;;;;5112050;28;20541;-64
2022/06/03 01:58:36;;;;;;;5.57;4.07;;;14.30;96.50;;;;;;5121733;27;20472;-64
2022/06/03 02:01:16;;;;;;;6.40;3.90;;;14.30;96.40;;;;;;5133144;28;20473;-64
2022/06/03 02:03:57;;;;;;;7.97;4.37;;;14.30;96.60;;;;;;5132612;28;20447;-64
2022/06/03 02:07:05;;;;;;;5.60;4.77;;;14.20;96.70;;;;;;5133127;28;20440;-65
2022/06/03 02:10:05;;;;;;;11.20;4.90;;;14.30;96.80;;;;;;5133329;27;20441;-64
2022/06/03 02:12:57;;;;;;;9.10;4.57;;;14.20;97.20;;;;;;5132684;27;20915;-63
2022/06/03 02:15:50;;;;;;;4.50;4.10;;;14.10;97.60;;;;;;5132615;28;20440;-64
2022/06/03 02:19:05;;;;;;;4.47;4.07;;;14.10;98.20;;;;;;5132527;27;20477;-63
2022/06/03 02:22:20;;;;;;;5.10;4.20;;;14.20;98.20;;;;;;5049179;28;20937;-64
2022/06/03 02:25:16;;;;;;;4.70;4.30;;;14.20;98.00;;;;;;5086917;28;20438;-64
2022/06/03 02:28:24;;;;;;;6.00;5.20;;;14.20;98.10;;;;;;5112773;28;20422;-65
2022/06/03 02:31:25;;;;;;;5.80;4.50;;;14.30;98.30;;;;;;5116550;28;20421;-64
2022/06/03 02:34:29;;;;;;;6.00;4.40;;;14.30;98.60;;;;;;5132872;28;20915;-64
2022/06/03 02:37:16;;;;;;;5.60;4.50;;;14.40;98.80;;;;;;5132388;27;20461;-64
2022/06/03 02:40:06;;;;;;;5.40;4.90;;;14.50;98.60;;;;;;5132866;27;20432;-64
2022/06/03 02:42:56;;;;;;;4.40;4.00;;;14.50;98.40;;;;;;5132384;27;20434;-64
2022/06/03 02:45:49;;;;;;;4.37;3.73;;;14.50;98.10;;;;;;5132385;27;20448;-64
2022/06/03 02:49:03;;;;;;;6.60;4.47;;;14.50;97.90;;;;;;5132603;28;20528;-64
2022/06/03 02:51:57;;;;;;;4.67;4.17;;;14.40;97.70;;;;;;5132396;27;20441;-64
2022/06/03 02:55:13;;;;;;;5.87;3.60;;;14.30;97.80;;;;;;5132338;27;20469;-64
2022/06/03 02:57:53;;;;;;;5.33;4.10;;;14.30;97.80;;;;;;5132172;28;20475;-64
2022/06/03 03:00:31;;;;;;;5.30;4.00;;;14.20;97.70;;;;;;5132712;27;20536;-64
2022/06/03 03:03:39;;;;;;;7.23;4.93;;;14.10;97.80;;;;;;5135903;27;20915;-64
2022/06/03 03:06:41;;;;;;;8.93;6.10;;;14.20;97.80;;;;;;5090246;27;20500;-64
2022/06/03 03:09:25;;;;;;;6.30;5.27;;;14.20;98.00;;;;;;5135662;27;20432;-65
2022/06/03 03:12:21;;;;;;;5.10;4.33;;;14.20;98.00;;;;;;5136084;27;20953;-64
2022/06/03 03:15:21;;;;;;;4.10;3.33;;;14.20;97.90;;;;;;5084183;28;20430;-64
2022/06/03 03:18:16;;;;;;;5.00;3.60;;;14.20;97.50;;;;;;5070585;27;20477;-64
2022/06/03 03:21:08;;;;;;;4.20;3.33;;;14.10;97.40;;;;;;5136269;27;20433;-64
2022/06/03 03:24:05;;;;;;;4.77;3.30;;;14.00;97.30;;;;;;5135770;27;20425;-64
2022/06/03 03:26:48;;;;;;;4.37;3.73;;;14.00;97.10;;;;;;5136037;27;20437;-64
2022/06/03 03:29:44;;;;;;;4.20;3.80;;;14.00;97.30;;;;;;5135545;27;20433;-64
2022/06/03 03:32:24;;;;;;;4.53;4.00;;;13.90;97.90;;;;;;5135792;27;20437;-64
2022/06/03 03:35:13;;;;;;;4.40;3.63;;;13.80;98.10;;;;;;5135504;27;20437;-63
2022/06/03 03:38:21;;;;;;;4.90;3.60;;;13.80;98.40;;;;;;5131442;27;20512;-65
2022/06/03 03:41:19;;;;;;;6.60;5.10;;;13.90;98.80;;;;;;5115023;28;20525;-64
2022/06/03 03:44:09;;;;;;;9.53;5.20;;;13.90;99.00;;;;;;5127943;27;20518;-64
2022/06/03 03:47:11;;;;;;;7.03;5.10;;;14.00;98.70;;;;;;5135625;27;20477;-64
2022/06/03 03:50:16;;;;;;;8.57;5.40;;;14.00;99.10;;;;;;5135096;27;20524;-64
2022/06/03 03:53:11;;;;;;;5.60;4.20;;;14.00;98.80;;;;;;5134527;27;20437;-66
2022/06/03 03:56:14;;;;;;;7.53;4.80;;;14.00;98.70;;;;;;5135526;27;20992;-64
2022/06/03 03:59:21;;;;;;;7.63;4.20;;;13.90;99.10;;;;;;5134694;27;20464;-63
2022/06/03 04:02:37;;;;;;;6.53;4.63;;;13.90;99.40;;;;;;5135410;27;20486;-64
2022/06/03 04:05:42;;;;;;;5.50;4.00;;;13.90;99.50;;;;;;5115097;28;20438;-64
2022/06/03 04:08:50;;;;;;;5.40;4.40;;;14.00;99.60;;;;;;5120070;27;20461;-64
2022/06/03 04:12:00;;;;;;;4.90;4.40;;;14.10;99.90;;;;;;5135238;27;20478;-64
2022/06/03 04:15:21;;;;;;;6.60;4.70;;;14.20;99.90;;;;;;5058920;27;20953;-64
2022/06/03 04:18:19;;;;;;;4.93;4.43;;;14.20;99.90;;;;;;5119593;27;20808;-64
2022/06/03 04:21:15;;;;;;;5.10;4.07;;;14.30;99.90;;;;;;5135274;27;20480;-64
2022/06/03 04:24:23;;;;;;;7.40;5.63;;;14.40;99.90;;;;;;5134829;27;20773;-64
2022/06/03 04:27:22;;;;;;;5.30;4.50;;;14.40;99.90;;;;;;5135466;27;20425;-64
2022/06/03 04:30:10;;;;;;;6.53;5.03;;;14.50;99.90;;;;;;5134577;27;20536;-64
2022/06/03 04:33:28;;;;;;;5.73;5.13;;;14.60;99.90;;;;;;5134661;27;20517;-64
2022/06/03 04:36:35;;;;;;;6.67;5.90;;;14.70;99.90;;;;;;5135097;27;20452;-64
2022/06/03 04:40:01;;;;;;;8.10;4.97;;;14.90;99.90;;;;;;5134461;27;20483;-64
2022/06/03 04:43:15;;;;;;;6.77;5.13;;;15.00;99.90;;;;;;5118436;27;20915;-64
2022/06/03 04:46:22;;;;;;;4.97;4.37;;;15.20;99.90;;;;;;5134585;27;20464;-64
2022/06/03 04:49:24;;;;;;;6.30;4.20;;;15.30;99.90;;;;;;5109499;27;20444;-64
2022/06/03 04:52:44;;;;;;;6.13;4.10;;;15.40;99.60;;;;;;5134646;27;20525;-64
2022/06/03 04:55:57;;;;;;;5.10;4.60;;;15.50;99.40;;;;;;5113980;28;20540;-64
2022/06/03 04:59:09;;;;;;;5.53;4.47;;;15.60;99.30;;;;;;5125152;27;20534;-64
2022/06/03 05:02:21;;;;;;;5.20;4.13;;;15.60;99.00;;;;;;5134281;27;20442;-65
2022/06/03 05:05:37;;;;;;;4.83;4.33;;;15.60;99.00;;;;;;5110565;28;20442;-64
2022/06/03 05:08:45;;;;;;;4.67;4.17;;;15.70;99.10;;;;;;5120584;27;20870;-64
2022/06/03 05:12:12;;;;;;;4.73;4.17;;;15.80;99.20;;;;;;5134314;27;20441;-65
2022/06/03 05:15:23;;;;;;;11.93;4.43;;;15.90;99.40;;;;;;5132865;27;20429;-64
2022/06/03 05:18:16;;;;;;;8.10;5.80;;;16.00;99.70;;;;;;5089112;27;20477;-64
2022/06/03 05:21:14;;;;;;;7.57;5.93;;;16.10;99.90;;;;;;5133976;27;20441;-64
2022/06/03 05:24:00;;;;;;;9.63;5.87;;;16.30;99.90;;;;;;5132855;27;20437;-65
2022/06/03 05:27:09;;;;;;;5.47;4.97;;;16.40;99.90;;;;;;5134025;27;20437;-64
2022/06/03 05:30:03;;;;;;;6.77;5.30;;;16.50;99.70;;;;;;5113509;28;20837;-64
2022/06/03 05:33:12;;;;;;;6.60;5.03;;;16.70;99.90;;;;;;5117264;27;20429;-64
2022/06/03 05:36:08;;;;;;;7.30;5.50;;;17.00;99.90;;;;;;5050583;28;20441;-65
2022/06/03 05:39:17;;;;;;;6.00;4.87;;;17.20;99.60;;;;;;5130247;27;20475;-64
2022/06/03 05:42:28;;;;;;;5.87;5.10;;;17.40;98.30;;;;;;5133816;27;20953;-64
2022/06/03 05:45:32;;;;;;;5.10;4.60;;;17.40;98.20;;;;;;5069296;28;20495;-64
2022/06/03 05:48:04;;;;;;;5.13;4.53;;;17.50;97.90;;;;;;5118439;27;20503;-64
2022/06/03 05:50:43;;;;;;;8.33;4.60;;;17.60;97.70;;;;;;5133500;27;20524;-65
2022/06/03 05:53:25;;;;;;;5.30;4.80;;;17.60;97.50;;;;;;5133626;27;20961;-64
2022/06/03 05:56:03;;;;;;;6.43;4.47;;;17.60;97.70;;;;;;5133100;27;20788;-64
2022/06/03 05:58:44;;;;;;;9.33;5.00;;;17.70;97.90;;;;;;5131691;28;20515;-64
2022/06/03 06:01:42;;;;;;;6.67;5.20;;;17.90;98.40;;;;;;5133737;27;20780;-64
2022/06/03 06:04:20;;;;;;;5.97;5.10;;;18.10;98.60;;;;;;5087723;27;20438;-64
2022/06/03 06:07:08;;;;;;;7.23;4.00;;;18.30;98.50;;;;;;5134178;28;20437;-64
2022/06/03 06:09:54;;;;;;;5.80;5.20;;;18.50;97.90;;;;;;5134251;28;20468;-66
2022/06/03 06:12:29;;;;;;;6.00;4.70;;;18.70;97.60;;;;;;5133171;28;20754;-64
2022/06/03 06:15:29;;;;;;;5.80;5.23;;;18.80;97.30;;;;;;5133866;27;20433;-64
2022/06/03 06:18:08;;;;;;;6.80;5.20;;;18.90;97.30;;;;;;5131556;28;20564;-64
2022/06/03 06:20:48;;;;;;;5.40;4.20;;;18.90;96.90;;;;;;5131910;28;20524;-64
2022/06/03 06:23:18;;;;;;;5.90;5.30;;;19.00;96.70;;;;;;5129925;28;20867;-64
2022/06/03 06:26:18;;;;;;;6.43;4.53;;;19.00;96.30;;;;;;5131383;28;20524;-66
2022/06/03 06:29:03;;;;;;;5.60;5.00;;;19.00;96.10;;;;;;5117816;28;20925;-65
2022/06/03 06:31:55;;;;;;;6.57;4.40;;;19.00;96.10;;;;;;5131967;28;20548;-64
2022/06/03 06:34:39;;;;;;;5.43;3.60;;;19.10;96.20;;;;;;5130425;27;21070;-65
2022/06/03 06:37:51;;;;;;;6.20;4.60;;;19.20;96.20;;;;;;5134233;27;20550;-64
2022/06/03 06:40:31;;;;;;;4.93;4.43;;;19.30;96.40;;;;;;5133409;27;20437;-65
2022/06/03 06:43:10;;;;;;;5.97;4.60;;;19.40;96.40;;;;;;5135715;27;20516;-66
2022/06/03 06:45:49;;;;;;;4.77;4.23;;;19.40;96.40;;;;;;5134752;27;20433;-66
2022/06/03 06:48:28;;;;;;;5.47;4.30;;;19.50;96.10;;;;;;5132763;27;20440;-64
2022/06/03 06:51:03;;;;;;;4.40;4.00;;;19.50;96.20;;;;;;5134679;27;20433;-64
2022/06/03 06:53:37;;;;;;;5.50;4.90;;;19.60;96.10;;;;;;5135050;27;20468;-64
2022/06/03 06:56:13;;;;;;;4.00;3.60;;;19.70;96.50;;;;;;5136249;27;20888;-64
2022/06/03 06:58:50;;;;;;;4.37;3.97;;;19.80;96.60;;;;;;5135850;27;20990;-64
2022/06/03 07:01:22;;;;;;;7.60;4.73;;;19.80;96.70;;;;;;5132787;27;20466;-64
2022/06/03 07:03:58;;;;;;;6.60;4.20;;;19.80;96.30;;;;;;5136012;27;20482;-66
2022/06/03 07:06:38;;;;;;;5.70;4.53;;;19.90;96.20;;;;;;5135926;27;20440;-64
2022/06/03 07:09:41;;;;;;;5.97;5.10;;;20.00;95.60;;;;;;5136148;27;20437;-64
2022/06/03 07:12:13;;;;;;;5.50;3.63;;;20.00;95.40;;;;;;5136069;27;20516;-65
2022/06/03 07:15:06;;;;;;;4.97;4.47;;;20.10;95.20;;;;;;5135769;27;20532;-64
2022/06/03 07:20:51;;;;;;;5.43;3.97;;;20.40;94.80;;;;;;5132188;27;20429;-65
2022/06/03 07:23:27;;;;;;;5.93;3.80;;;20.50;94.50;;;;;;5135637;27;20433;-65
2022/06/03 07:26:00;;;;;;;7.63;3.13;;;20.70;94.10;;;;;;5135490;27;20437;-65
2022/06/03 07:28:36;;;;;;;3.67;2.67;;;20.80;93.90;;;;;;5135744;27;20448;-64
2022/06/03 07:31:12;;;;;;;4.70;3.40;;;20.90;93.40;;;;;;5135279;27;20481;-64
2022/06/03 07:33:51;;;;;;;4.27;3.30;;;21.00;93.10;;;;;;5135636;27;20938;-65
2022/06/03 07:36:27;;;;;;;7.90;3.10;;;21.20;93.50;;;;;;5132160;27;20435;-65
2022/06/03 07:38:58;;;;;;;5.10;3.30;;;21.30;92.70;;;;;;5135686;27;20552;-64
2022/06/03 07:41:32;;;;;;;4.10;3.43;;;21.40;92.50;;;;;;5134966;27;20520;-65
2022/06/03 07:44:07;;;;;;;4.10;3.10;;;21.60;93.00;;;;;;5135361;27;20543;-64
2022/06/03 07:46:52;;;;;;;4.17;2.90;;;21.70;93.10;;;;;;5134939;27;21027;-65
2022/06/03 07:49:21;;;;;;;4.07;3.10;;;21.90;92.40;;;;;;5134526;27;20464;-65
2022/06/03 07:51:52;;;;;;;5.50;3.30;;;22.00;91.90;;;;;;5135097;27;20441;-65
2022/06/03 07:54:26;;;;;;;5.63;3.30;;;22.20;92.30;;;;;;5134680;27;20878;-65
2022/06/03 07:57:01;;;;;;;3.60;2.83;;;22.40;91.80;;;;;;5132106;27;20451;-64
2022/06/03 07:59:32;;;;;;;5.03;3.27;;;22.50;91.10;;;;;;5132312;27;20484;-69
2022/06/03 08:02:03;;;;;;;4.40;3.13;;;22.60;91.10;;;;;;5134999;27;20436;-64
2022/06/03 08:04:31;;;;;;;7.13;3.83;;;22.70;91.50;;;;;;5134691;27;20477;-65
2022/06/03 08:12:34;;;;;;;5.07;3.27;;;23.30;90.20;;;;;;5132926;27;20473;-65
2022/06/03 08:15:15;;;;;;;5.10;2.97;;;23.40;88.90;;;;;;5132781;27;20446;-65
2022/06/03 08:17:45;;;;;;;4.83;2.80;;;23.50;86.60;;;;;;5134490;27;20448;-66
2022/06/03 08:20:15;;;;;;;8.60;3.20;;;23.60;86.70;;;;;;5134434;27;21045;-65
2022/06/03 08:22:44;;;;;;;8.53;4.70;;;23.80;86.50;;;;;;5134647;27;20430;-65
2022/06/03 08:25:15;;;;;;;3.43;2.63;;;23.90;88.70;;;;;;5134284;27;20442;-65
2022/06/03 08:27:43;;;;;;;5.17;3.00;;;24.10;87.30;;;;;;5134738;27;20435;-65
2022/06/03 08:30:20;;;;;;;4.40;3.00;;;24.20;86.30;;;;;;5134350;27;20485;-65
2022/06/03 08:32:51;;;;;;;4.80;2.70;;;24.40;85.90;;;;;;5132493;27;20933;-65
2022/06/03 08:35:23;;;;;;;4.37;2.97;;;24.60;83.60;;;;;;5134156;27;20562;-65
2022/06/03 08:37:54;;;;;;;6.67;3.20;;;24.70;83.70;;;;;;5134492;27;20507;-65
2022/06/03 08:40:30;;;;;;;3.80;2.70;;;24.80;84.00;;;;;;5133431;27;20574;-65
2022/06/03 08:43:07;;;;;;;3.43;2.23;;;24.90;82.60;;;;;;5134184;27;20440;-65
2022/06/03 08:45:44;;;;;;;4.03;3.37;;;25.10;80.00;;;;;;5134310;27;20527;-65
2022/06/03 08:48:14;;;;;;;10.90;3.83;;;25.20;78.60;;;;;;5133584;27;20429;-65
2022/06/03 08:50:58;;;;;;;8.33;3.67;;;25.40;79.60;;;;;;5133703;27;20518;-65
2022/06/03 08:53:31;;;;;;;3.47;2.60;;;25.50;78.40;;;;;;5132008;27;20472;-65
2022/06/03 08:56:02;;;;;;;4.03;2.67;;;25.60;77.80;;;;;;5134105;27;20529;-65
2022/06/03 08:58:37;;;;;;;5.63;3.33;;;25.70;75.90;;;;;;5133320;27;20831;-65
2022/06/03 09:01:23;;;;;;;3.70;3.03;;;25.80;77.00;;;;;;5133479;27;20579;-65
2022/06/03 09:04:05;;;;;;;4.43;3.07;;;25.90;76.90;;;;;;5130789;27;20793;-65
2022/06/03 09:06:47;;;;;;;6.77;3.33;;;26.10;76.50;;;;;;5133784;27;20814;-65
2022/06/03 09:09:22;;;;;;;3.90;3.20;;;26.20;76.20;;;;;;5133786;27;20473;-65
2022/06/03 09:11:58;;;;;;;7.67;3.30;;;26.30;75.90;;;;;;5130807;27;20787;-65
2022/06/03 09:14:27;;;;;;;5.80;3.43;;;26.40;73.40;;;;;;5133453;27;20834;-65
2022/06/03 09:16:59;;;;;;;7.53;3.40;;;26.40;73.20;;;;;;5133260;27;20486;-65
2022/06/03 09:19:33;;;;;;;5.10;2.77;;;26.50;73.30;;;;;;5133042;27;20842;-65
2022/06/03 09:22:07;;;;;;;5.83;3.50;;;26.60;73.50;;;;;;5132951;27;20447;-65
2022/06/03 09:24:38;;;;;;;5.13;3.37;;;26.70;74.30;;;;;;5133181;27;20484;-65
2022/06/03 09:27:06;;;;;;;4.10;3.33;;;26.80;74.30;;;;;;5133617;27;20437;-65
2022/06/03 09:29:34;;;;;;;4.40;3.20;;;27.00;74.90;;;;;;5132886;27;20518;-65
2022/06/03 09:32:04;;;;;;;5.93;2.83;;;27.00;72.30;;;;;;5133047;27;20448;-65
2022/06/03 09:34:41;;;;;;;5.37;3.10;;;27.10;70.00;;;;;;5133314;27;20476;-65
2022/06/03 09:37:11;;;;;;;3.73;3.10;;;27.20;69.60;;;;;;5133269;27;20535;-65
2022/06/03 09:39:38;;;;;;;3.10;2.80;;;27.30;71.10;;;;;;5132629;27;20571;-67
2022/06/03 09:42:05;;;;;;;5.47;3.20;;;27.40;69.70;;;;;;5133378;27;20523;-65
2022/06/03 09:44:33;;;;;;;3.57;3.17;;;27.40;69.90;;;;;;5133038;27;20437;-66
2022/06/03 09:47:02;;;;;;;4.10;3.27;;;27.50;68.00;;;;;;5132990;27;20520;-65
2022/06/03 09:49:32;;;;;;;3.50;3.20;;;27.60;67.90;;;;;;5132703;27;20524;-65
2022/06/03 09:52:02;;;;;;;4.03;3.10;;;27.70;69.30;;;;;;5132917;27;20477;-65
2022/06/03 09:54:34;;;;;;;5.73;3.00;;;27.70;70.10;;;;;;5133002;27;20516;-65
2022/06/03 09:57:08;;;;;;;4.40;3.07;;;27.80;68.50;;;;;;5132379;27;21014;-65
2022/06/03 09:59:36;;;;;;;3.20;2.70;;;27.90;67.10;;;;;;5132549;27;20498;-65
2022/06/03 10:02:05;;;;;;;3.80;2.70;;;28.00;68.40;;;;;;5132503;28;21018;-65
2022/06/03 10:04:32;;;;;;;4.13;2.80;;;28.10;66.60;;;;;;5132742;28;20445;-65
2022/06/03 10:07:02;;;;;;;4.10;2.80;;;28.20;66.10;;;;;;5132677;28;20455;-65
2022/06/03 10:17:52;;;;;;;2.97;2.43;;;28.60;59.30;;;;;;5137094;27;20458;-64
2022/06/03 10:20:20;;;;;;;4.70;2.67;;;28.60;55.30;;;;;;5136536;27;20529;-65
2022/06/03 10:22:49;;;;;;;3.77;2.87;;;28.70;56.00;;;;;;5136788;27;20437;-65
2022/06/03 10:25:17;;;;;;;2.97;2.23;;;28.70;54.90;;;;;;5136955;27;20449;-64
2022/06/03 10:27:45;;;;;;;2.90;2.10;;;28.80;55.20;;;;;;5136510;27;20498;-66
2022/06/03 10:30:14;;;;;;;2.57;2.23;;;29.00;54.80;;;;;;5136022;27;20433;-65
2022/06/03 10:32:41;;;;;;;3.60;2.57;;;29.20;55.50;;;;;;5136647;27;20435;-64
2022/06/03 10:35:14;;;;;;;4.87;2.30;;;29.40;54.30;;;;;;5136775;27;20524;-65
2022/06/03 10:37:51;;;;;;;5.83;2.03;;;29.50;51.80;;;;;;5134692;27;20976;-65
2022/06/03 10:40:19;;;;;;;3.40;2.27;;;29.80;49.50;;;;;;5136361;27;21026;-65
2022/06/03 10:42:50;;;;;;;2.97;2.07;;;30.00;51.60;;;;;;5136768;27;20433;-65
2022/06/03 10:45:17;;;;;;;2.70;1.90;;;30.20;48.20;;;;;;5136343;27;20433;-65
2022/06/03 10:47:45;;;;;;;4.20;2.47;;;30.30;44.60;;;;;;5136378;27;20830;-65
2022/06/03 10:50:25;;;;;;;5.00;1.97;;;30.40;46.10;;;;;;5136187;27;20429;-65
2022/06/03 11:01:31;;;;;;;2.60;2.10;;;30.60;43.90;;;;;;5135771;27;20420;-65
2022/06/03 11:03:59;;;;;;;2.77;2.10;;;30.60;45.20;;;;;;5135850;27;20856;-65
2022/06/03 11:06:33;;;;;;;4.27;2.90;;;30.60;44.30;;;;;;5136045;27;20478;-65
2022/06/03 11:09:02;;;;;;;5.57;2.10;;;30.80;44.70;;;;;;5131871;27;20441;-65
2022/06/03 11:11:35;;;;;;;4.73;2.47;;;31.00;45.00;;;;;;5134706;27;20507;-65
2022/06/03 11:14:27;;;;;;;5.43;2.73;;;31.20;45.20;;;;;;5129534;27;20790;-67
2022/06/03 11:17:01;;;;;;;4.40;2.10;;;31.40;43.30;;;;;;5133347;27;20441;-65
2022/06/03 11:19:32;;;;;;;3.40;1.87;;;31.60;44.10;;;;;;5135497;27;20559;-65
2022/06/03 11:22:28;;;;;;;3.10;2.13;;;31.80;44.60;;;;;;5134770;27;20893;-65
2022/06/03 11:25:02;;;;;;;3.60;1.90;;;32.00;43.00;;;;;;5099409;27;20461;-65
2022/06/03 11:27:36;;;;;;;4.17;2.10;;;32.10;42.20;;;;;;5134832;27;20477;-65
2022/06/03 11:30:08;;;;;;;3.10;2.27;;;32.30;42.20;;;;;;5128655;27;20540;-65
2022/06/03 11:32:37;;;;;;;4.20;2.30;;;32.40;38.50;;;;;;5135219;27;20442;-65
2022/06/03 11:35:09;;;;;;;4.57;2.20;;;32.40;40.00;;;;;;5131335;27;20532;-64
2022/06/03 11:37:40;;;;;;;4.83;2.40;;;32.40;39.40;;;;;;5129591;27;20469;-66
2022/06/03 11:40:16;;;;;;;4.20;2.67;;;32.60;41.20;;;;;;5134525;27;20487;-65
2022/06/03 11:42:48;;;;;;;5.30;2.40;;;32.80;41.00;;;;;;5131778;27;20448;-65
2022/06/03 11:45:19;;;;;;;4.13;2.40;;;33.00;39.10;;;;;;5134196;27;20481;-65
2022/06/03 11:47:54;;;;;;;3.87;2.07;;;33.10;37.20;;;;;;5134132;27;20795;-65
2022/06/03 11:50:25;;;;;;;3.60;2.10;;;33.10;37.30;;;;;;5134270;27;20536;-64
2022/06/03 11:52:54;;;;;;;3.03;2.20;;;33.20;38.40;;;;;;5134195;27;20939;-65
2022/06/03 11:55:26;;;;;;;3.40;2.20;;;33.30;39.20;;;;;;5134694;27;20485;-65
2022/06/03 11:57:57;;;;;;;3.57;2.30;;;33.30;36.10;;;;;;5134836;27;20782;-65
2022/06/03 12:00:27;;;;;;;5.43;2.73;;;33.30;37.40;;;;;;5134608;27;20830;-65
2022/06/03 12:03:13;;;;;;;3.60;2.60;;;33.30;36.50;;;;;;5134830;27;20441;-65
2022/06/03 12:05:48;;;;;;;3.80;2.63;;;33.20;36.80;;;;;;5132426;27;20444;-66
2022/06/03 12:08:22;;;;;;;5.00;3.10;;;33.10;37.70;;;;;;5132550;27;20436;-67
2022/06/03 12:10:56;;;;;;;5.37;2.70;;;33.00;38.60;;;;;;5134546;27;20441;-65
2022/06/03 12:13:27;;;;;;;6.23;2.60;;;32.90;38.30;;;;;;5134556;27;20539;-66
2022/06/03 12:16:03;;;;;;;2.63;2.30;;;32.70;38.20;;;;;;5134552;27;20549;-64
2022/06/03 12:19:01;;;;;;;2.90;2.20;;;32.40;37.60;;;;;;5134558;27;20448;-65
2022/06/03 12:21:52;;;;;;;3.60;2.30;;;32.30;39.10;;;;;;5133784;27;20540;-69
2022/06/03 12:24:41;;;;;;;4.00;2.90;;;32.00;39.20;;;;;;5132671;27;20963;-65
2022/06/03 12:27:19;;;;;;;3.97;2.50;;;31.90;39.80;;;;;;5134726;27;20490;-65
2022/06/03 12:29:56;;;;;;;4.10;2.30;;;31.60;40.00;;;;;;5131890;27;20461;-64
2022/06/03 12:32:27;;;;;;;3.83;2.80;;;31.30;39.50;;;;;;5134120;27;20907;-65
2022/06/03 12:35:33;;;;;;;4.23;2.47;;;31.10;40.80;;;;;;5133342;27;20452;-64
2022/06/03 12:38:43;;;;;;;6.50;3.10;;;30.80;40.40;;;;;;5132208;27;20469;-64
2022/06/03 12:41:10;;;;;;;3.53;2.50;;;30.70;41.10;;;;;;5113025;27;20828;-65
2022/06/03 12:44:00;;;;;;;3.60;2.70;;;30.40;41.20;;;;;;5134355;27;20437;-64
2022/06/03 12:46:41;;;;;;;5.10;2.93;;;30.20;41.80;;;;;;5133322;27;20441;-64
2022/06/03 12:49:18;;;;;;;6.37;2.60;;;29.90;42.00;;;;;;5134345;27;20546;-66
2022/06/03 12:52:01;;;;;;;3.27;2.20;;;29.70;42.50;;;;;;5132220;27;20436;-65
2022/06/03 12:54:29;;;;;;;3.47;2.20;;;29.40;42.40;;;;;;5132935;27;20511;-64
2022/06/03 12:57:04;;;;;;;3.17;2.20;;;29.30;43.30;;;;;;5133294;27;20490;-64
2022/06/03 12:59:44;;;;;;;3.90;2.70;;;29.10;44.70;;;;;;5133665;27;20445;-64
2022/06/03 13:02:19;;;;;;;7.20;2.50;;;29.00;44.80;;;;;;5132938;27;20966;-64
2022/06/03 13:05:08;;;;;;;4.60;2.47;;;28.80;45.10;;;;;;5131645;27;20441;-64
2022/06/03 13:07:39;;;;;;;5.50;2.20;;;28.80;45.70;;;;;;5132315;27;20440;-64
2022/06/03 13:10:26;;;;;;;3.30;2.60;;;28.70;46.80;;;;;;5133384;27;20444;-64
2022/06/03 13:13:14;;;;;;;4.60;2.90;;;28.70;47.20;;;;;;5132271;27;20788;-64
2022/06/03 13:15:51;;;;;;;5.40;2.50;;;28.70;47.30;;;;;;5133001;27;20788;-64
2022/06/03 13:18:40;;;;;;;9.60;2.97;;;28.60;47.10;;;;;;5133318;27;20473;-64
2022/06/03 13:21:21;;;;;;;5.67;3.10;;;28.60;47.70;;;;;;5131424;27;20484;-64
2022/06/03 13:23:58;;;;;;;3.87;2.70;;;28.50;47.60;;;;;;5132889;27;20436;-64
2022/06/03 13:26:45;;;;;;;6.20;2.87;;;28.50;47.80;;;;;;5132221;27;20439;-64
2022/06/03 13:29:13;;;;;;;3.30;3.00;;;28.40;48.60;;;;;;5133070;27;20493;-65
2022/06/03 13:32:04;;;;;;;5.27;3.33;;;28.30;48.40;;;;;;5132556;27;20437;-65
2022/06/03 13:34:41;;;;;;;4.70;3.10;;;28.30;48.50;;;;;;5128776;27;20532;-64
2022/06/03 13:37:33;;;;;;;4.90;2.50;;;28.30;48.80;;;;;;5133349;27;20919;-65
2022/06/03 13:40:30;;;;;;;4.57;2.60;;;28.20;48.90;;;;;;5132232;27;20485;-64
2022/06/03 13:43:18;;;;;;;3.20;2.30;;;28.10;49.30;;;;;;5132038;27;20998;-64
2022/06/03 13:46:01;;;;;;;4.63;2.73;;;28.00;49.20;;;;;;5131830;27;20524;-64
2022/06/03 13:48:34;;;;;;;3.70;3.17;;;28.00;48.90;;;;;;5132126;27;20437;-64
2022/06/03 13:51:29;;;;;;;3.47;2.80;;;27.90;49.40;;;;;;5132599;27;20792;-64
2022/06/03 13:54:00;;;;;;;4.67;3.33;;;27.90;50.00;;;;;;5131603;27;21021;-64
2022/06/03 13:56:31;;;;;;;5.67;2.97;;;27.80;50.20;;;;;;5132121;27;20614;-64
2022/06/03 13:59:01;;;;;;;3.60;2.90;;;27.80;50.50;;;;;;5133032;27;20441;-64
2022/06/03 14:01:31;;;;;;;8.63;2.90;;;27.70;50.70;;;;;;5131434;27;20938;-64
2022/06/03 14:04:06;;;;;;;3.87;2.60;;;27.60;51.10;;;;;;5132309;27;20445;-64
2022/06/03 14:06:38;;;;;;;4.10;3.00;;;27.60;51.10;;;;;;5132942;28;20441;-64
2022/06/03 14:09:11;;;;;;;4.57;2.80;;;27.50;51.60;;;;;;5133001;28;20441;-64
2022/06/03 14:11:42;;;;;;;3.87;3.27;;;27.40;51.30;;;;;;5132301;27;20528;-64
2022/06/03 14:14:14;;;;;;;5.07;3.17;;;27.30;51.30;;;;;;5133050;27;20433;-65
2022/06/03 14:16:47;;;;;;;3.57;2.70;;;27.20;51.90;;;;;;5132799;27;20855;-65
2022/06/03 14:19:45;;;;;;;3.60;3.00;;;27.10;52.30;;;;;;5132970;28;20441;-64
2022/06/03 14:22:24;;;;;;;4.07;2.53;;;27.00;51.80;;;;;;5130761;28;20434;-64
2022/06/03 14:25:10;;;;;;;4.70;3.30;;;26.90;52.90;;;;;;5132695;28;20461;-64
2022/06/03 14:27:42;;;;;;;4.27;2.60;;;26.90;53.30;;;;;;5129349;28;20437;-64
2022/06/03 14:30:17;;;;;;;7.27;2.97;;;26.70;53.70;;;;;;5130854;27;20469;-64
2022/06/03 14:32:48;;;;;;;4.10;2.97;;;26.70;54.40;;;;;;5118787;28;20429;-66
2022/06/03 14:35:22;;;;;;;6.53;3.20;;;26.60;55.10;;;;;;5128227;28;20437;-64
2022/06/03 14:37:53;;;;;;;3.57;2.50;;;26.50;55.00;;;;;;5130558;28;20923;-66
2022/06/03 14:40:25;;;;;;;3.20;2.80;;;26.40;55.40;;;;;;5131977;28;20481;-67